createdAt,value
2023-03-06T00:02:28.859Z,1.55
2023-03-06T00:07:25.377Z,1.51
2023-03-06T00:12:21.811Z,1.48
2023-03-06T00:17:18.110Z,1.44
2023-03-06T00:22:15.089Z,1.61
2023-03-06T00:27:11.695Z,1.65
2023-03-06T00:32:08.189Z,1.68
2023-03-06T00:37:04.648Z,1.63
2023-03-06T00:42:00.992Z,1.72
2023-03-06T00:46:57.312Z,1.64
2023-03-06T00:51:53.616Z,1.54
2023-03-06T00:56:49.936Z,1.50
2023-03-06T01:01:46.692Z,1.51
2023-03-06T01:06:43.134Z,1.57
2023-03-06T01:11:39.650Z,1.69
2023-03-06T01:16:36.025Z,1.65
2023-03-06T01:21:32.391Z,1.55
2023-03-06T01:26:28.785Z,1.28
2023-03-06T01:31:25.838Z,1.30
2023-03-06T01:36:22.215Z,1.47
2023-03-06T01:41:18.690Z,1.62
2023-03-06T01:46:44.056Z,1.65
2023-03-06T01:51:53.759Z,1.59
2023-03-06T01:56:54.038Z,1.51
2023-03-06T02:01:51.058Z,1.48
2023-03-06T02:06:47.782Z,1.65
2023-03-06T02:11:45.420Z,1.50
2023-03-06T02:16:43.318Z,1.36
2023-03-06T02:21:39.749Z,1.34
2023-03-06T02:26:37.446Z,1.28
2023-03-06T02:31:35.685Z,1.31
2023-03-06T02:36:35.096Z,1.31
2023-03-06T02:41:31.500Z,1.32
2023-03-06T02:46:28.449Z,1.33
2023-03-06T02:51:25.149Z,1.34
2023-03-06T02:56:22.029Z,1.34
2023-03-06T03:01:18.437Z,1.37
2023-03-06T03:06:14.991Z,1.37
2023-03-06T03:11:12.180Z,1.40
2023-03-06T03:16:11.646Z,1.39
2023-03-06T03:21:11.180Z,1.38
2023-03-06T03:26:13.852Z,1.37
2023-03-06T03:31:11.587Z,1.45
2023-03-06T03:36:08.364Z,1.34
2023-03-06T03:41:05.016Z,1.19
2023-03-06T03:46:01.383Z,1.20
2023-03-06T03:51:12.304Z,1.09
2023-03-06T03:56:08.626Z,1.07
2023-03-06T04:01:05.599Z,1.01
2023-03-06T04:06:01.940Z,1.06
2023-03-06T04:10:58.253Z,0.95
2023-03-06T04:15:55.882Z,0.82
2023-03-06T04:20:52.512Z,0.81
2023-03-06T04:25:48.871Z,0.75
2023-03-06T04:30:45.213Z,0.70
2023-03-06T04:35:41.657Z,0.66
2023-03-06T04:40:37.992Z,0.59
2023-03-06T04:45:35.349Z,0.62
2023-03-06T04:50:58.171Z,0.69
2023-03-06T04:55:56.130Z,0.71
2023-03-06T05:00:52.485Z,0.75
2023-03-06T05:05:48.828Z,0.77
2023-03-06T05:10:45.849Z,0.79
2023-03-06T05:15:42.274Z,0.82
2023-03-06T05:20:38.646Z,0.85
2023-03-06T05:25:34.985Z,0.88
2023-03-06T05:30:31.324Z,0.87
2023-03-06T05:35:28.052Z,0.83
2023-03-06T05:40:25.221Z,0.77
2023-03-06T05:45:21.823Z,0.76
2023-03-06T05:50:18.251Z,0.70
2023-03-06T05:55:15.491Z,0.73
2023-03-06T06:00:13.710Z,0.76
2023-03-06T06:05:12.878Z,0.79
2023-03-06T06:10:11.312Z,0.82
2023-03-06T06:15:08.081Z,0.83
2023-03-06T06:20:04.880Z,0.84
2023-03-06T06:25:01.231Z,0.86
2023-03-06T06:29:57.604Z,0.85
2023-03-06T06:34:54.250Z,0.82
2023-03-06T06:39:50.562Z,0.77
2023-03-06T06:44:48.514Z,0.76
2023-03-06T06:49:46.441Z,0.80
2023-03-06T06:54:42.811Z,0.78
2023-03-06T06:59:39.241Z,0.77
2023-03-06T07:04:35.588Z,0.81
2023-03-06T07:09:31.911Z,0.82
2023-03-06T07:14:28.269Z,0.84
2023-03-06T07:19:24.859Z,0.88
2023-03-06T07:24:21.201Z,0.95
2023-03-06T07:29:17.599Z,0.99
2023-03-06T07:34:14.876Z,1.00
2023-03-06T07:39:11.249Z,0.92
2023-03-06T07:44:07.580Z,1.00
2023-03-06T07:49:04.323Z,1.01
2023-03-06T07:54:00.650Z,0.98
2023-03-06T07:58:57.251Z,0.92
2023-03-06T08:03:53.788Z,0.96
2023-03-06T08:08:51.803Z,1.03
2023-03-06T08:13:48.807Z,1.05
2023-03-06T08:18:46.589Z,1.09
2023-03-06T08:23:44.407Z,0.98
2023-03-06T08:28:41.133Z,0.95
2023-03-06T08:33:38.823Z,0.89
2023-03-06T08:38:35.252Z,0.82
2023-03-06T08:43:31.775Z,0.84
2023-03-06T08:48:30.071Z,0.83
2023-03-06T08:53:42.183Z,0.92
2023-03-06T08:58:42.044Z,1.01
2023-03-06T09:03:41.544Z,1.12
2023-03-06T09:08:46.655Z,1.03
2023-03-06T09:13:43.803Z,1.07
2023-03-06T09:18:40.754Z,0.90
2023-03-06T09:23:39.488Z,0.90
2023-03-06T09:28:38.880Z,1.03
2023-03-06T09:33:35.343Z,1.09
2023-03-06T09:38:47.124Z,1.11
2023-03-06T09:44:01.768Z,1.23
2023-03-06T09:49:36.346Z,1.20
2023-03-06T09:54:47.622Z,1.20
2023-03-06T09:59:47.466Z,1.19
2023-03-06T10:04:49.099Z,1.12
2023-03-06T10:09:52.165Z,1.21
2023-03-06T10:15:23.127Z,1.22
2023-03-06T10:20:22.729Z,1.35
2023-03-06T10:25:39.733Z,1.35
2023-03-06T10:31:22.149Z,1.40
2023-03-06T10:36:34.005Z,1.47
2023-03-06T10:41:46.002Z,1.79
2023-03-06T10:46:45.891Z,2.24
2023-03-06T10:52:20.583Z,2.10
2023-03-06T10:57:20.592Z,2.26
2023-03-06T11:02:38.554Z,2.16
2023-03-06T11:07:36.203Z,2.15
2023-03-06T11:12:35.301Z,1.87
2023-03-06T11:17:32.225Z,2.00
2023-03-06T11:22:28.619Z,2.17
2023-03-06T11:27:34.833Z,2.57
2023-03-06T11:32:45.172Z,2.51
2023-03-06T11:37:58.260Z,3.18
2023-03-06T11:43:12.940Z,3.30
2023-03-06T11:48:15.351Z,3.03
2023-03-06T11:53:21.858Z,2.89
2023-03-06T11:58:51.949Z,2.77
2023-03-06T12:04:12.375Z,2.59
2023-03-06T12:09:14.542Z,2.15
2023-03-06T12:14:27.447Z,1.58
2023-03-06T12:19:33.179Z,1.80
2023-03-06T12:24:32.312Z,2.09
2023-03-06T12:29:46.485Z,2.71
2023-03-06T12:34:54.622Z,2.99
2023-03-06T12:40:06.622Z,2.82
2023-03-06T12:45:18.576Z,3.13
2023-03-06T12:50:23.956Z,3.51
2023-03-06T12:55:24.918Z,3.84
2023-03-06T13:01:04.403Z,3.55
2023-03-06T13:06:24.902Z,3.26
2023-03-06T13:11:27.796Z,3.20
2023-03-06T13:16:34.796Z,3.21
2023-03-06T13:21:46.616Z,3.32
2023-03-06T13:26:42.961Z,3.43
2023-03-06T13:31:40.023Z,3.58
2023-03-06T13:36:39.572Z,3.52
2023-03-06T13:41:43.364Z,3.73
2023-03-06T13:46:41.261Z,3.48
2023-03-06T13:51:48.715Z,3.73
2023-03-06T13:57:16.209Z,4.25
2023-03-06T14:02:33.818Z,4.33
2023-03-06T14:07:39.976Z,4.22
2023-03-06T14:12:41.404Z,4.27
2023-03-06T14:17:39.140Z,4.25
2023-03-06T14:22:35.527Z,4.18
2023-03-06T14:27:44.103Z,4.56
2023-03-06T14:32:41.277Z,4.74
2023-03-06T14:37:38.105Z,4.45
2023-03-06T14:42:34.628Z,4.16
2023-03-06T14:47:36.098Z,4.45
2023-03-06T14:52:32.921Z,4.40
2023-03-06T14:57:29.331Z,4.89
2023-03-06T15:02:29.912Z,4.80
2023-03-06T15:07:30.650Z,4.40
2023-03-06T15:12:27.189Z,4.34
2023-03-06T15:17:27.408Z,4.49
2023-03-06T15:22:37.810Z,4.34
2023-03-06T15:27:34.307Z,4.41
2023-03-06T15:32:33.686Z,4.21
2023-03-06T15:37:30.216Z,4.04
2023-03-06T15:42:27.973Z,3.87
2023-03-06T15:47:24.661Z,4.01
2023-03-06T15:52:22.308Z,3.86
2023-03-06T15:57:25.271Z,3.65
2023-03-06T16:02:23.233Z,3.38
2023-03-06T16:07:20.582Z,3.21
2023-03-06T16:12:19.710Z,3.14
2023-03-06T16:17:17.202Z,3.12
2023-03-06T16:22:13.894Z,3.08
2023-03-06T16:27:18.480Z,3.10
2023-03-06T16:32:14.940Z,3.07
2023-03-06T16:37:13.244Z,2.97
2023-03-06T16:42:09.710Z,2.86
2023-03-06T16:47:06.258Z,2.82
2023-03-06T16:52:04.522Z,2.89
2023-03-06T16:57:00.853Z,2.83
2023-03-06T17:01:57.467Z,2.88
2023-03-06T17:06:53.805Z,2.88
2023-03-06T17:11:50.157Z,2.88
2023-03-06T17:16:46.562Z,2.70
2023-03-06T17:21:43.620Z,2.59
2023-03-06T17:26:40.200Z,2.41
2023-03-06T17:31:36.593Z,2.43
2023-03-06T17:36:33.361Z,2.48
2023-03-06T17:41:29.926Z,2.21
2023-03-06T17:46:26.481Z,2.12
2023-03-06T17:51:23.411Z,2.10
2023-03-06T17:56:19.943Z,2.15
2023-03-06T18:01:19.341Z,2.11
2023-03-06T18:06:17.289Z,2.02
2023-03-06T18:11:14.107Z,1.83
2023-03-06T18:16:14.224Z,1.77
2023-03-06T18:21:13.621Z,1.63
2023-03-06T18:26:13.163Z,1.60
2023-03-06T18:31:17.685Z,1.68
2023-03-06T18:36:14.392Z,1.61
2023-03-06T18:41:11.578Z,1.68
2023-03-06T18:46:08.451Z,1.59
2023-03-06T18:51:06.752Z,1.50
2023-03-06T18:56:03.707Z,1.39
2023-03-06T19:01:06.070Z,1.47
2023-03-06T19:06:07.966Z,1.46
2023-03-06T19:11:07.097Z,1.52
2023-03-06T19:16:04.408Z,1.61
2023-03-06T19:21:15.748Z,1.58
2023-03-06T19:26:12.538Z,1.76
2023-03-06T19:31:10.240Z,1.78
2023-03-06T19:36:09.123Z,1.82
2023-03-06T19:41:06.458Z,1.91
2023-03-06T19:46:03.670Z,1.91
2023-03-06T19:51:04.234Z,1.91
2023-03-06T19:56:09.306Z,1.88
2023-03-06T20:01:08.249Z,1.94
2023-03-06T20:06:08.893Z,1.97
2023-03-06T20:11:05.415Z,2.06
2023-03-06T20:16:02.983Z,2.14
2023-03-06T20:21:00.862Z,2.12
2023-03-06T20:26:01.454Z,2.18
2023-03-06T20:30:58.272Z,2.13
2023-03-06T20:35:54.670Z,2.12
2023-03-06T20:40:54.750Z,2.06
2023-03-06T20:46:02.701Z,2.08
2023-03-06T20:51:03.968Z,2.14
2023-03-06T20:56:01.145Z,2.01
2023-03-06T21:00:59.533Z,2.05
2023-03-06T21:05:57.214Z,2.06
2023-03-06T21:10:53.560Z,2.02
2023-03-06T21:15:49.944Z,2.00
2023-03-06T21:20:46.313Z,2.05
2023-03-06T21:25:50.541Z,2.03
2023-03-06T21:30:46.902Z,1.99
2023-03-06T21:35:44.799Z,1.95
2023-03-06T21:40:41.498Z,1.98
2023-03-06T21:45:37.885Z,1.98
2023-03-06T21:50:35.146Z,1.98
2023-03-06T21:55:31.486Z,2.00
2023-03-06T22:00:27.825Z,2.00
2023-03-06T22:05:24.914Z,2.10
2023-03-06T22:10:21.669Z,2.11
2023-03-06T22:15:18.182Z,2.12
2023-03-06T22:20:15.347Z,2.12
2023-03-06T22:25:12.020Z,2.14
2023-03-06T22:30:09.259Z,2.19
2023-03-06T22:35:06.191Z,2.18
2023-03-06T22:40:02.556Z,2.18
2023-03-06T22:44:58.862Z,2.14
2023-03-06T22:49:55.197Z,2.17
2023-03-06T22:54:51.521Z,2.16
2023-03-06T22:59:47.881Z,2.15
2023-03-06T23:04:44.289Z,2.16
2023-03-06T23:09:40.727Z,2.21
2023-03-06T23:14:37.247Z,2.22
2023-03-06T23:19:33.599Z,2.21
2023-03-06T23:24:30.006Z,2.17
2023-03-06T23:29:26.352Z,2.18
2023-03-06T23:34:23.615Z,2.12
2023-03-06T23:39:19.992Z,2.07
2023-03-06T23:44:16.391Z,2.05
2023-03-06T23:49:12.790Z,1.99
2023-03-06T23:54:10.075Z,2.02
2023-03-06T23:59:06.395Z,2.01
